createdAt,value
2018-07-03T00:00:27.736Z,1001.45
2018-07-03T00:01:08.725Z,1001.43
2018-07-03T00:01:49.212Z,1001.45
2018-07-03T00:02:29.711Z,1001.45
2018-07-03T00:03:10.935Z,1001.47
2018-07-03T00:03:51.458Z,1001.42
2018-07-03T00:04:32.824Z,1001.46
2018-07-03T00:05:13.289Z,1001.45
2018-07-03T00:05:54.542Z,1001.43
2018-07-03T00:06:35.060Z,1001.45
2018-07-03T00:07:15.584Z,1001.46
2018-07-03T00:07:56.695Z,1001.47
2018-07-03T00:08:37.177Z,1001.45
2018-07-03T00:09:17.638Z,1001.43
2018-07-03T00:09:58.125Z,1001.43
2018-07-03T00:10:39.234Z,1001.46
2018-07-03T00:11:19.732Z,1001.4
2018-07-03T00:12:00.215Z,1001.47
2018-07-03T00:12:40.710Z,1001.43
2018-07-03T00:13:21.243Z,1001.39
2018-07-03T00:14:02.663Z,1001.43
2018-07-03T00:14:43.200Z,1001.4
2018-07-03T00:15:23.704Z,1001.48
2018-07-03T00:16:04.206Z,1001.47
2018-07-03T00:16:44.694Z,1001.47
2018-07-03T00:17:26.186Z,1001.49
2018-07-03T00:18:06.649Z,1001.49
2018-07-03T00:18:47.130Z,1001.52
2018-07-03T00:19:27.660Z,1001.48
2018-07-03T00:20:08.140Z,1001.48
2018-07-03T00:20:48.609Z,1001.48
2018-07-03T00:21:29.117Z,1001.44
2018-07-03T00:22:10.171Z,1001.45
2018-07-03T00:22:50.679Z,1001.42
2018-07-03T00:23:31.192Z,1001.39
2018-07-03T00:24:12.422Z,1001.39
2018-07-03T00:24:52.982Z,1001.43
2018-07-03T00:25:33.454Z,1001.39
2018-07-03T00:26:13.896Z,1001.37
2018-07-03T00:26:54.452Z,1001.36
2018-07-03T00:27:35.823Z,1001.38
2018-07-03T00:28:16.320Z,1001.44
2018-07-03T00:28:56.781Z,1001.39
2018-07-03T00:29:37.296Z,1001.4
2018-07-03T00:30:17.832Z,1001.41
2018-07-03T00:30:58.260Z,1001.45
2018-07-03T00:31:38.743Z,1001.42
2018-07-03T00:32:19.266Z,1001.41
2018-07-03T00:32:59.776Z,1001.43
2018-07-03T00:33:40.252Z,1001.41
2018-07-03T00:34:21.277Z,1001.4
2018-07-03T00:35:01.781Z,1001.39
2018-07-03T00:35:43.262Z,1001.42
2018-07-03T00:36:23.750Z,1001.38
2018-07-03T00:37:04.309Z,1001.42
2018-07-03T00:39:23.415Z,1001.47
2018-07-03T00:40:04.910Z,1001.47
2018-07-03T00:40:45.429Z,1001.46
2018-07-03T00:41:25.944Z,1001.5
2018-07-03T00:42:06.460Z,1001.49
2018-07-03T00:42:47.817Z,1001.49
2018-07-03T00:43:28.315Z,1001.53
2018-07-03T00:44:08.840Z,1001.45
2018-07-03T00:44:49.346Z,1001.47
2018-07-03T00:45:30.426Z,1001.47
2018-07-03T00:46:10.946Z,1001.47
2018-07-03T00:46:53.346Z,1001.45
2018-07-03T00:47:33.835Z,1001.43
2018-07-03T00:48:14.294Z,1001.46
2018-07-03T00:48:55.327Z,1001.44
2018-07-03T00:49:36.818Z,1001.45
2018-07-03T00:50:17.346Z,1001.45
2018-07-03T00:50:57.813Z,1001.4
2018-07-03T00:51:38.329Z,1001.43
2018-07-03T00:52:18.840Z,1001.44
2018-07-03T00:53:01.923Z,1001.44
2018-07-03T00:53:42.449Z,1001.45
2018-07-03T00:54:22.869Z,1001.43
2018-07-03T00:55:04.319Z,1001.41
2018-07-03T00:55:44.836Z,1001.47
2018-07-03T00:56:26.321Z,1001.5
2018-07-03T00:57:06.806Z,1001.43
2018-07-03T00:57:47.319Z,1001.47
2018-07-03T00:58:27.822Z,1001.48
2018-07-03T00:59:08.332Z,1001.48
2018-07-03T00:59:48.796Z,1001.48
2018-07-03T01:00:29.316Z,1001.49
2018-07-03T01:01:09.822Z,1001.5
2018-07-03T01:01:51.035Z,1001.49
2018-07-03T01:02:31.533Z,1001.5
2018-07-03T01:03:12.611Z,1001.51
2018-07-03T01:03:53.630Z,1001.53
2018-07-03T01:04:34.136Z,1001.51
2018-07-03T01:05:14.649Z,1001.52
2018-07-03T01:05:55.152Z,1001.5
2018-07-03T01:06:35.669Z,1001.48
2018-07-03T01:07:16.157Z,1001.49
2018-07-03T01:07:57.331Z,1001.49
2018-07-03T01:08:37.827Z,1001.51
2018-07-03T01:09:18.934Z,1001.48
2018-07-03T01:09:59.434Z,1001.5
2018-07-03T01:10:40.849Z,1001.49
2018-07-03T01:11:21.401Z,1001.48
2018-07-03T01:12:01.849Z,1001.48
2018-07-03T01:12:43.039Z,1001.47
2018-07-03T01:13:23.527Z,1001.44
2018-07-03T01:14:04.634Z,1001.45
2018-07-03T01:14:45.117Z,1001.43
2018-07-03T01:15:25.601Z,1001.42
2018-07-03T01:16:06.962Z,1001.45
2018-07-03T01:16:47.439Z,1001.49
2018-07-03T01:17:27.967Z,1001.47
2018-07-03T01:18:08.459Z,1001.51
2018-07-03T01:18:50.570Z,1001.46
2018-07-03T01:19:31.092Z,1001.43
2018-07-03T01:20:11.597Z,1001.43
2018-07-03T01:20:54.018Z,1001.41
2018-07-03T01:21:34.545Z,1001.42
2018-07-03T01:22:15.075Z,1001.38
2018-07-03T01:22:55.608Z,1001.41
2018-07-03T01:23:36.079Z,1001.41
2018-07-03T01:24:16.582Z,1001.4
2018-07-03T01:24:57.033Z,1001.44
2018-07-03T01:25:37.537Z,1001.42
2018-07-03T01:26:18.023Z,1001.45
2018-07-03T01:26:58.631Z,1001.4
2018-07-03T01:27:39.086Z,1001.43
2018-07-03T01:28:19.607Z,1001.43
2018-07-03T01:29:00.837Z,1001.46
2018-07-03T01:29:41.363Z,1001.44
2018-07-03T01:30:23.253Z,1001.45
2018-07-03T01:31:04.388Z,1001.5
2018-07-03T01:31:45.861Z,1001.5
2018-07-03T01:32:27.165Z,1001.47
2018-07-03T01:33:07.641Z,1001.52
2018-07-03T01:33:50.189Z,1001.53
2018-07-03T01:34:30.650Z,1001.49
2018-07-03T01:35:11.186Z,1001.55
2018-07-03T01:35:51.657Z,1001.54
2018-07-03T01:36:32.119Z,1001.54
2018-07-03T01:37:12.613Z,1001.55
2018-07-03T01:37:53.130Z,1001.56
2018-07-03T01:38:33.601Z,1001.56
2018-07-03T01:39:14.074Z,1001.57
2018-07-03T01:39:57.550Z,1001.53
2018-07-03T01:40:38.845Z,1001.55
2018-07-03T01:41:20.937Z,1001.57
2018-07-03T01:42:01.955Z,1001.61
2018-07-03T01:42:42.462Z,1001.55
2018-07-03T01:43:23.711Z,1001.55
2018-07-03T01:44:04.239Z,1001.55
2018-07-03T01:44:44.762Z,1001.56
2018-07-03T01:45:25.286Z,1001.56
2018-07-03T01:46:06.647Z,1001.59
2018-07-03T01:46:47.140Z,1001.6
2018-07-03T01:47:27.631Z,1001.65
2018-07-03T01:48:08.131Z,1001.63
2018-07-03T01:48:48.629Z,1001.61
2018-07-03T01:49:29.645Z,1001.65
2018-07-03T01:50:10.140Z,1001.69
2018-07-03T01:50:50.663Z,1001.62
2018-07-03T01:51:31.163Z,1001.63
2018-07-03T01:52:11.718Z,1001.68
2018-07-03T01:52:52.220Z,1001.68
2018-07-03T01:53:32.703Z,1001.66
2018-07-03T01:54:13.230Z,1001.63
2018-07-03T01:54:53.705Z,1001.64
2018-07-03T01:55:34.214Z,1001.6
2018-07-03T01:56:15.253Z,1001.66
2018-07-03T01:56:56.569Z,1001.71
2018-07-03T01:57:37.059Z,1001.64
2018-07-03T01:58:18.227Z,1001.65
2018-07-03T01:58:58.772Z,1001.68
2018-07-03T01:59:39.305Z,1001.69
2018-07-03T02:00:20.526Z,1001.66
2018-07-03T02:01:01.028Z,1001.71
2018-07-03T02:01:41.569Z,1001.7
2018-07-03T02:02:22.054Z,1001.69
2018-07-03T02:03:02.549Z,1001.71
2018-07-03T02:03:43.022Z,1001.71
2018-07-03T02:04:23.526Z,1001.7
2018-07-03T02:05:04.051Z,1001.7
2018-07-03T02:05:44.576Z,1001.72
2018-07-03T02:06:25.109Z,1001.7
2018-07-03T02:07:05.618Z,1001.7
2018-07-03T02:07:49.726Z,1001.66
2018-07-03T02:08:30.724Z,1001.68
2018-07-03T02:09:11.261Z,1001.69
2018-07-03T02:09:52.725Z,1001.73
2018-07-03T02:10:33.961Z,1001.72
2018-07-03T02:11:15.358Z,1001.72
2018-07-03T02:11:55.853Z,1001.71
2018-07-03T02:12:36.403Z,1001.72
2018-07-03T02:13:16.902Z,1001.7
2018-07-03T02:13:57.375Z,1001.69
2018-07-03T02:14:37.904Z,1001.67
2018-07-03T02:15:18.429Z,1001.7
2018-07-03T02:15:58.950Z,1001.68
2018-07-03T02:16:39.446Z,1001.68
2018-07-03T02:17:19.963Z,1001.71
2018-07-03T02:18:01.468Z,1001.67
2018-07-03T02:18:42.866Z,1001.63
2018-07-03T02:19:23.967Z,1001.65
2018-07-03T02:20:04.465Z,1001.66
2018-07-03T02:20:44.991Z,1001.7
2018-07-03T02:21:25.486Z,1001.69
2018-07-03T02:22:05.998Z,1001.64
2018-07-03T02:22:47.258Z,1001.68
2018-07-03T02:23:27.732Z,1001.71
2018-07-03T02:24:09.169Z,1001.72
2018-07-03T02:24:49.667Z,1001.65
2018-07-03T02:25:30.988Z,1001.66
2018-07-03T02:26:11.456Z,1001.69
2018-07-03T02:26:51.984Z,1001.69
2018-07-03T02:27:32.442Z,1001.65
2018-07-03T02:28:12.916Z,1001.66
2018-07-03T02:28:53.414Z,1001.64
2018-07-03T02:29:33.923Z,1001.63
2018-07-03T02:30:15.235Z,1001.67
2018-07-03T02:30:55.816Z,1001.7
2018-07-03T02:31:36.273Z,1001.66
2018-07-03T02:32:17.571Z,1001.67
2018-07-03T02:32:58.054Z,1001.65
2018-07-03T02:33:38.582Z,1001.67
2018-07-03T02:34:19.089Z,1001.7
2018-07-03T02:34:59.597Z,1001.68
2018-07-03T02:35:40.112Z,1001.69
2018-07-03T02:36:20.605Z,1001.64
2018-07-03T02:37:01.085Z,1001.64
2018-07-03T02:37:41.590Z,1001.7
2018-07-03T02:38:22.104Z,1001.67
2018-07-03T02:39:02.590Z,1001.67
2018-07-03T02:39:43.878Z,1001.71
2018-07-03T02:40:24.403Z,1001.75
2018-07-03T02:41:04.890Z,1001.68
2018-07-03T02:41:45.396Z,1001.77
2018-07-03T02:42:25.869Z,1001.73
2018-07-03T02:43:07.037Z,1001.68
2018-07-03T02:43:47.592Z,1001.65
2018-07-03T02:44:28.047Z,1001.72
2018-07-03T02:45:08.606Z,1001.63
2018-07-03T02:45:49.080Z,1001.67
2018-07-03T02:46:29.568Z,1001.7
2018-07-03T02:47:10.883Z,1001.7
2018-07-03T02:47:51.346Z,1001.68
2018-07-03T02:48:32.693Z,1001.68
2018-07-03T02:49:13.202Z,1001.72
2018-07-03T02:49:53.704Z,1001.73
2018-07-03T02:50:34.182Z,1001.72
2018-07-03T02:51:14.782Z,1001.69
2018-07-03T02:51:55.211Z,1001.67
2018-07-03T02:52:35.693Z,1001.7
2018-07-03T02:53:17.749Z,1001.66
2018-07-03T02:53:58.900Z,1001.64
2018-07-03T02:54:39.417Z,1001.7
2018-07-03T02:55:19.888Z,1001.64
2018-07-03T02:56:01.392Z,1001.65
2018-07-03T02:56:41.922Z,1001.65
2018-07-03T02:57:23.182Z,1001.66
2018-07-03T02:58:03.710Z,1001.64
2018-07-03T02:58:44.221Z,1001.66
2018-07-03T02:59:24.736Z,1001.67
2018-07-03T03:00:05.893Z,1001.67
2018-07-03T03:00:46.404Z,1001.69
2018-07-03T03:01:28.600Z,1001.66
2018-07-03T03:02:09.095Z,1001.68
2018-07-03T03:02:49.611Z,1001.67
2018-07-03T03:03:30.120Z,1001.69
2018-07-03T03:04:10.629Z,1001.71
2018-07-03T03:04:51.136Z,1001.75
2018-07-03T03:05:31.645Z,1001.81
2018-07-03T03:06:12.179Z,1001.79
2018-07-03T03:06:52.688Z,1001.82
2018-07-03T03:07:33.201Z,1001.81
2018-07-03T03:08:14.331Z,1001.83
2018-07-03T03:08:54.774Z,1001.82
2018-07-03T03:09:35.280Z,1001.82
2018-07-03T03:10:15.773Z,1001.81
2018-07-03T03:10:56.275Z,1001.89
2018-07-03T03:11:36.776Z,1001.8
2018-07-03T03:12:17.884Z,1001.87
2018-07-03T03:12:58.388Z,1001.83
2018-07-03T03:13:38.882Z,1001.87
2018-07-03T03:14:19.393Z,1001.87
2018-07-03T03:14:59.926Z,1001.88
2018-07-03T03:15:40.453Z,1001.86
2018-07-03T03:16:21.488Z,1001.83
2018-07-03T03:17:03.703Z,1001.86
2018-07-03T03:17:45.094Z,1001.86
2018-07-03T03:18:25.580Z,1001.83
2018-07-03T03:19:06.047Z,1001.87
2018-07-03T03:19:46.566Z,1001.87
2018-07-03T03:20:27.048Z,1001.8
2018-07-03T03:21:07.531Z,1001.8
2018-07-03T03:21:48.040Z,1001.86
2018-07-03T03:22:28.535Z,1001.83
2018-07-03T03:23:08.992Z,1001.87
2018-07-03T03:23:50.131Z,1001.84
2018-07-03T03:24:30.598Z,1001.85
2018-07-03T03:25:11.112Z,1001.8
2018-07-03T03:25:52.281Z,1001.87
2018-07-03T03:26:32.762Z,1001.85
2018-07-03T03:27:13.274Z,1001.83
2018-07-03T03:27:54.284Z,1001.82
2018-07-03T03:28:35.286Z,1001.83
2018-07-03T03:29:15.761Z,1001.78
2018-07-03T03:29:56.256Z,1001.81
2018-07-03T03:30:36.775Z,1001.78
2018-07-03T03:31:17.283Z,1001.81
2018-07-03T03:31:58.418Z,1001.82
2018-07-03T03:32:38.924Z,1001.85
2018-07-03T03:33:19.387Z,1001.85
2018-07-03T03:33:59.864Z,1001.89
2018-07-03T03:34:42.771Z,1001.85
2018-07-03T03:35:23.297Z,1001.82
2018-07-03T03:36:04.037Z,1001.88
2018-07-03T03:36:45.154Z,1001.92
2018-07-03T03:37:26.292Z,1001.92
2018-07-03T03:38:06.787Z,1001.9
2018-07-03T03:38:47.245Z,1001.9
2018-07-03T03:39:27.778Z,1001.92
2018-07-03T03:40:08.276Z,1001.89
2018-07-03T03:40:48.751Z,1001.93
2018-07-03T03:41:29.258Z,1001.92
2018-07-03T03:42:10.349Z,1001.93
2018-07-03T03:42:50.797Z,1001.95
2018-07-03T03:43:31.258Z,1001.94
2018-07-03T03:44:13.300Z,1001.95
2018-07-03T03:44:54.551Z,1001.96
2018-07-03T03:45:35.053Z,1001.98
2018-07-03T03:46:15.585Z,1001.98
2018-07-03T03:46:56.038Z,1001.98
2018-07-03T03:47:36.536Z,1001.97
2018-07-03T03:48:17.019Z,1002.01
2018-07-03T03:48:57.516Z,1002.02
2018-07-03T03:49:38.003Z,1001.88
2018-07-03T03:50:19.828Z,1001.96
2018-07-03T03:51:00.398Z,1001.97
2018-07-03T03:51:41.651Z,1001.92
2018-07-03T03:52:22.112Z,1001.95
2018-07-03T03:53:05.642Z,1001.95
2018-07-03T03:53:46.146Z,1001.94
2018-07-03T03:54:26.622Z,1001.92
2018-07-03T03:55:07.103Z,1001.94
2018-07-03T03:55:47.609Z,1001.84
2018-07-03T03:56:28.081Z,1001.88
2018-07-03T03:57:08.602Z,1001.88
2018-07-03T03:57:49.446Z,1001.88
2018-07-03T03:58:30.532Z,1001.82
2018-07-03T03:59:11.962Z,1001.92
2018-07-03T03:59:52.473Z,1001.81
2018-07-03T04:00:32.952Z,1001.84
2018-07-03T04:01:14.016Z,1001.84
2018-07-03T04:01:56.130Z,1001.85
2018-07-03T04:02:36.640Z,1001.81
2018-07-03T04:03:18.533Z,1001.83
2018-07-03T04:03:59.039Z,1001.88
2018-07-03T04:04:39.541Z,1001.85
2018-07-03T04:05:20.119Z,1001.89
2018-07-03T04:06:00.590Z,1001.93
2018-07-03T04:06:41.816Z,1001.91
2018-07-03T04:07:23.119Z,1001.87
2018-07-03T04:08:03.955Z,1001.94
2018-07-03T04:08:44.975Z,1001.93
2018-07-03T04:09:25.486Z,1001.93
2018-07-03T04:10:05.976Z,1001.99
2018-07-03T04:10:46.533Z,1001.91
2018-07-03T04:11:28.622Z,1001.95
2018-07-03T04:12:09.166Z,1001.99
2018-07-03T04:12:50.634Z,1002.01
2018-07-03T04:13:31.136Z,1001.99
2018-07-03T04:14:11.646Z,1002
2018-07-03T04:14:52.155Z,1002
2018-07-03T04:15:32.651Z,1001.93
2018-07-03T04:16:13.714Z,1001.97
2018-07-03T04:16:54.206Z,1001.96
2018-07-03T04:17:34.697Z,1001.96
2018-07-03T04:18:15.186Z,1001.92
2018-07-03T04:18:55.697Z,1001.91
2018-07-03T04:19:36.209Z,1001.91
2018-07-03T04:20:16.693Z,1001.9
2018-07-03T04:20:57.153Z,1001.91
2018-07-03T04:21:37.638Z,1001.91
2018-07-03T04:22:18.161Z,1001.91
2018-07-03T04:22:58.666Z,1001.88
2018-07-03T04:23:39.795Z,1001.93
2018-07-03T04:24:20.314Z,1001.93
2018-07-03T04:25:00.842Z,1001.89
2018-07-03T04:25:41.860Z,1001.97
2018-07-03T04:26:22.944Z,1001.93
2018-07-03T04:27:04.116Z,1001.94
2018-07-03T04:27:44.668Z,1001.9
2018-07-03T04:28:25.130Z,1001.99
2018-07-03T04:29:06.547Z,1002.03
2018-07-03T04:29:47.093Z,1002.03
2018-07-03T04:30:27.593Z,1002.05
2018-07-03T04:31:08.121Z,1002.01
2018-07-03T04:31:48.559Z,1002.06
2018-07-03T04:32:29.097Z,1002.04
2018-07-03T04:33:09.612Z,1002.13
2018-07-03T04:33:50.165Z,1002.06
2018-07-03T04:34:31.356Z,1002.05
2018-07-03T04:35:11.824Z,1002.07
2018-07-03T04:35:53.124Z,1002.06
2018-07-03T04:36:33.665Z,1002.12
2018-07-03T04:37:14.186Z,1002.03
2018-07-03T04:37:54.722Z,1002.06
2018-07-03T04:38:35.179Z,1002.07
2018-07-03T04:39:15.663Z,1002.03
2018-07-03T04:39:57.146Z,1002.06
2018-07-03T04:40:38.561Z,1002.07
2018-07-03T04:41:21.010Z,1002.05
2018-07-03T04:42:03.172Z,1002.02
2018-07-03T04:42:43.678Z,1002.05
2018-07-03T04:43:24.160Z,1002.06
2018-07-03T04:44:04.666Z,1002.04
2018-07-03T04:44:45.130Z,1002.11
2018-07-03T04:45:26.350Z,1002.29
2018-07-03T04:46:06.823Z,1002.19
2018-07-03T04:46:47.302Z,1002.28
2018-07-03T04:47:27.791Z,1002.14
2018-07-03T04:48:08.272Z,1002.14
2018-07-03T04:48:48.786Z,1002.06
2018-07-03T04:49:29.318Z,1002.06
2018-07-03T04:50:10.322Z,1002.02
2018-07-03T04:50:50.856Z,1002.05
2018-07-03T04:51:31.406Z,1002.05
2018-07-03T04:52:12.792Z,1002.06
2018-07-03T04:52:53.261Z,1002.07
2018-07-03T04:53:33.790Z,1002.07
2018-07-03T04:54:14.295Z,1002.07
2018-07-03T04:54:54.786Z,1002.13
2018-07-03T04:55:35.241Z,1002.09
2018-07-03T04:56:16.343Z,1002.1
2018-07-03T04:56:56.826Z,1002.13
2018-07-03T04:57:37.338Z,1002.17
2018-07-03T04:58:17.825Z,1002.14
2018-07-03T04:58:58.285Z,1002.19
2018-07-03T04:59:38.752Z,1002.11
2018-07-03T05:00:19.253Z,1002.14
2018-07-03T05:00:59.767Z,1002.08
2018-07-03T05:01:40.240Z,1002.12
2018-07-03T05:02:20.770Z,1002.11
2018-07-03T05:03:01.295Z,1002.14
2018-07-03T05:03:41.956Z,1002.16
2018-07-03T05:04:22.256Z,1002.13
2018-07-03T05:05:02.776Z,1002.22
2018-07-03T05:05:45.158Z,1002.21
2018-07-03T05:06:25.661Z,1002.17
2018-07-03T05:07:06.332Z,1002.1
2018-07-03T05:07:46.872Z,1002.12
2018-07-03T05:08:27.476Z,1002.18
2018-07-03T05:09:07.900Z,1002.13
2018-07-03T05:09:48.415Z,1002.13
2018-07-03T05:10:28.907Z,1002.18
2018-07-03T05:11:09.401Z,1002.13
2018-07-03T05:11:50.525Z,1002.14
2018-07-03T05:12:31.017Z,1002.2
2018-07-03T05:13:11.522Z,1002.15
2018-07-03T05:13:51.977Z,1002.18
2018-07-03T05:14:32.505Z,1002.21
2018-07-03T05:15:13.009Z,1002.2
2018-07-03T05:15:53.532Z,1002.25
2018-07-03T05:16:34.026Z,1002.22
2018-07-03T05:17:15.193Z,1002.22
2018-07-03T05:17:55.673Z,1002.39
2018-07-03T05:18:36.886Z,1002.31
2018-07-03T05:19:18.196Z,1002.32
2018-07-03T05:19:59.663Z,1002.32
2018-07-03T05:20:40.071Z,1002.31
2018-07-03T05:21:21.071Z,1002.32
2018-07-03T05:22:01.572Z,1002.32
2018-07-03T05:22:42.063Z,1002.29
2018-07-03T05:23:22.655Z,1002.28
2018-07-03T05:24:03.243Z,1002.27
2018-07-03T05:24:44.067Z,1002.32
2018-07-03T05:25:24.442Z,1002.35
2018-07-03T05:26:04.936Z,1002.38
2018-07-03T05:26:45.574Z,1002.48
2018-07-03T05:27:26.204Z,1002.41
2018-07-03T05:28:06.531Z,1002.46
2018-07-03T05:28:47.051Z,1002.41
2018-07-03T05:29:27.569Z,1002.38
2018-07-03T05:30:09.017Z,1002.39
2018-07-03T05:30:49.503Z,1002.38
2018-07-03T05:31:30.042Z,1002.4
2018-07-03T05:32:10.459Z,1002.42
2018-07-03T05:32:50.966Z,1002.46
2018-07-03T05:33:31.437Z,1002.43
2018-07-03T05:34:11.955Z,1002.42
2018-07-03T05:34:52.445Z,1002.51
2018-07-03T05:35:32.970Z,1002.48
2018-07-03T05:36:13.436Z,1002.46
2018-07-03T05:36:53.967Z,1002.46
2018-07-03T05:37:34.463Z,1002.42
2018-07-03T05:38:15.611Z,1002.54
2018-07-03T05:38:56.071Z,1002.5
2018-07-03T05:39:36.568Z,1002.48
2018-07-03T05:40:17.041Z,1002.48
2018-07-03T05:40:57.566Z,1002.57
2018-07-03T05:41:38.960Z,1002.54
2018-07-03T05:42:19.576Z,1002.5
2018-07-03T05:44:18.430Z,1002.5
2018-07-03T05:45:00.516Z,1002.5
2018-07-03T05:45:41.021Z,1002.54
2018-07-03T05:46:21.528Z,1002.54
2018-07-03T05:47:02.031Z,1002.52
2018-07-03T05:47:43.353Z,1002.52
2018-07-03T05:48:23.913Z,1002.53
2018-07-03T05:49:04.381Z,1002.52
2018-07-03T05:49:44.910Z,1002.48
2018-07-03T05:50:25.418Z,1002.49
2018-07-03T05:51:05.958Z,1002.45
2018-07-03T05:51:46.478Z,1002.44
2018-07-03T05:52:26.974Z,1002.54
2018-07-03T05:53:07.527Z,1002.49
2018-07-03T05:53:48.020Z,1002.5
2018-07-03T05:54:28.757Z,1002.5
2018-07-03T05:55:09.450Z,1002.53
2018-07-03T05:55:49.751Z,1002.48
2018-07-03T05:56:30.654Z,1002.49
2018-07-03T05:57:10.783Z,1002.59
2018-07-03T05:57:52.073Z,1002.5
2018-07-03T05:58:32.533Z,1002.54
2018-07-03T05:59:13.026Z,1002.63
2018-07-03T05:59:53.548Z,1002.58
2018-07-03T06:00:34.865Z,1002.65
2018-07-03T06:01:15.360Z,1002.67
2018-07-03T06:01:56.865Z,1002.77
2018-07-03T06:02:37.353Z,1002.78
2018-07-03T06:03:17.868Z,1002.71
2018-07-03T06:03:58.321Z,1002.74
2018-07-03T06:04:38.830Z,1002.71
2018-07-03T06:05:19.537Z,1002.75
2018-07-03T06:06:00.069Z,1002.76
2018-07-03T06:06:40.555Z,1002.74
2018-07-03T06:07:21.083Z,1002.75
2018-07-03T06:08:01.539Z,1002.73
2018-07-03T06:08:42.091Z,1002.8
2018-07-03T06:09:23.148Z,1002.76
2018-07-03T06:10:03.889Z,1002.74
2018-07-03T06:10:44.950Z,1002.72
2018-07-03T06:11:25.510Z,1002.78
2018-07-03T06:12:06.948Z,1002.82
2018-07-03T06:12:47.481Z,1002.81
2018-07-03T06:13:27.976Z,1002.85
2018-07-03T06:14:08.493Z,1002.78
2018-07-03T06:14:49.086Z,1002.86
2018-07-03T06:15:29.531Z,1002.84
2018-07-03T06:16:10.891Z,1002.9
2018-07-03T06:16:51.400Z,1002.83
2018-07-03T06:17:31.959Z,1002.87
2018-07-03T06:18:12.411Z,1002.85
2018-07-03T06:18:53.023Z,1002.91
2018-07-03T06:19:33.547Z,1002.85
2018-07-03T06:20:15.112Z,1002.89
2018-07-03T06:20:55.557Z,1002.82
2018-07-03T06:21:38.545Z,1002.88
2018-07-03T06:22:19.046Z,1002.83
2018-07-03T06:22:59.564Z,1002.87
2018-07-03T06:23:40.052Z,1002.85
2018-07-03T06:24:20.547Z,1002.79
2018-07-03T06:25:01.987Z,1002.82
2018-07-03T06:25:43.032Z,1002.81
2018-07-03T06:26:23.572Z,1002.8
2018-07-03T06:27:04.034Z,1002.82
2018-07-03T06:27:44.596Z,1002.88
2018-07-03T06:28:25.148Z,1002.82
2018-07-03T06:29:05.746Z,1002.82
2018-07-03T06:29:46.199Z,1002.86
2018-07-03T06:30:26.663Z,1002.85
2018-07-03T06:31:07.791Z,1002.82
2018-07-03T06:31:48.275Z,1002.95
2018-07-03T06:32:28.812Z,1002.86
2018-07-03T06:33:09.331Z,1002.83
2018-07-03T06:33:49.890Z,1002.85
2018-07-03T06:34:30.443Z,1002.88
2018-07-03T06:35:10.841Z,1002.83
2018-07-03T06:35:52.171Z,1002.86
2018-07-03T06:36:33.391Z,1002.85
2018-07-03T06:37:15.827Z,1002.88
2018-07-03T06:37:56.307Z,1002.88
2018-07-03T06:38:36.841Z,1002.9
2018-07-03T06:39:18.180Z,1002.92
2018-07-03T06:39:59.399Z,1002.87
2018-07-03T06:40:39.864Z,1002.89
2018-07-03T06:41:20.389Z,1002.89
2018-07-03T06:42:00.845Z,1002.85
2018-07-03T06:42:42.067Z,1002.82
2018-07-03T06:43:22.582Z,1002.84
2018-07-03T06:44:04.558Z,1002.84
2018-07-03T06:44:45.228Z,1002.81
2018-07-03T06:45:25.632Z,1002.89
2018-07-03T06:46:07.079Z,1002.79
2018-07-03T06:46:47.584Z,1002.92
2018-07-03T06:47:28.107Z,1002.89
2018-07-03T06:48:08.517Z,1002.84
2018-07-03T06:48:49.130Z,1002.92
2018-07-03T06:49:30.433Z,1002.93
2018-07-03T06:50:11.457Z,1002.91
2018-07-03T06:50:51.974Z,1002.92
2018-07-03T06:51:32.496Z,1002.9
2018-07-03T06:52:12.996Z,1002.92
2018-07-03T06:52:53.532Z,1002.91
2018-07-03T06:53:34.677Z,1002.93
2018-07-03T06:54:15.150Z,1002.91
2018-07-03T06:54:55.669Z,1002.91
2018-07-03T06:55:36.201Z,1002.88
2018-07-03T06:56:17.426Z,1002.89
2018-07-03T06:56:58.688Z,1002.92
2018-07-03T06:57:40.012Z,1002.89
2018-07-03T06:58:20.562Z,1002.95
2018-07-03T06:59:00.958Z,1002.94
2018-07-03T06:59:41.474Z,1002.91
2018-07-03T07:00:22.508Z,1002.95
2018-07-03T07:01:03.688Z,1002.97
2018-07-03T07:01:44.161Z,1002.93
2018-07-03T07:02:25.418Z,1002.9
2018-07-03T07:03:05.903Z,1002.91
2018-07-03T07:03:46.424Z,1002.89
2018-07-03T07:04:27.831Z,1002.9
2018-07-03T07:05:08.307Z,1002.88
2018-07-03T07:05:49.797Z,1002.95
2018-07-03T07:06:30.891Z,1002.91
2018-07-03T07:07:13.009Z,1002.94
2018-07-03T07:07:53.510Z,1002.91
2018-07-03T07:08:34.035Z,1002.92
2018-07-03T07:09:15.416Z,1002.98
2018-07-03T07:09:55.805Z,1002.96
2018-07-03T07:10:37.460Z,1002.9
2018-07-03T07:11:17.904Z,1002.94
2018-07-03T07:11:58.438Z,1002.98
2018-07-03T07:12:38.883Z,1002.89
2018-07-03T07:13:20.323Z,1002.87
2018-07-03T07:14:00.879Z,1002.89
2018-07-03T07:14:41.312Z,1002.9
2018-07-03T07:15:21.896Z,1002.91
2018-07-03T07:16:02.372Z,1002.89
2018-07-03T07:16:42.902Z,1002.96
2018-07-03T07:17:23.334Z,1002.92
2018-07-03T07:18:03.882Z,1002.96
2018-07-03T07:18:44.366Z,1002.93
2018-07-03T07:19:25.708Z,1002.93
2018-07-03T07:20:06.216Z,1002.89
2018-07-03T07:20:46.644Z,1002.88
2018-07-03T07:21:27.300Z,1002.88
2018-07-03T07:22:08.362Z,1002.87
2018-07-03T07:22:50.428Z,1002.83
2018-07-03T07:23:30.990Z,1002.85
2018-07-03T07:24:11.391Z,1002.87
2018-07-03T07:24:51.867Z,1002.89
2018-07-03T07:25:32.393Z,1002.87
2018-07-03T07:26:12.913Z,1002.87
2018-07-03T07:26:53.425Z,1002.88
2018-07-03T07:27:33.900Z,1002.85
2018-07-03T07:28:15.064Z,1002.8
2018-07-03T07:28:55.549Z,1002.84
2018-07-03T07:29:36.107Z,1002.84
2018-07-03T07:30:17.312Z,1002.91
2018-07-03T07:30:57.849Z,1002.84
2018-07-03T07:31:38.329Z,1002.82
2018-07-03T07:32:18.840Z,1002.84
2018-07-03T07:32:59.372Z,1002.82
2018-07-03T07:33:39.836Z,1002.81
2018-07-03T07:34:20.345Z,1002.81
2018-07-03T07:35:01.381Z,1002.84
2018-07-03T07:35:41.945Z,1002.83
2018-07-03T07:36:22.411Z,1002.88
2018-07-03T07:37:02.927Z,1002.86
2018-07-03T07:37:43.504Z,1002.85
2018-07-03T07:38:24.021Z,1002.96
2018-07-03T07:39:04.500Z,1002.93
2018-07-03T07:39:45.001Z,1002.92
2018-07-03T07:40:25.515Z,1002.9
2018-07-03T07:41:05.999Z,1002.94
2018-07-03T07:41:46.477Z,1002.9
2018-07-03T07:42:26.947Z,1002.94
2018-07-03T07:43:07.458Z,1002.92
2018-07-03T07:43:48.005Z,1002.98
2018-07-03T07:44:28.497Z,1002.99
2018-07-03T07:45:08.962Z,1003.03
2018-07-03T07:45:49.485Z,1003.01
2018-07-03T07:46:30.917Z,1003.04
2018-07-03T07:47:11.458Z,1002.96
2018-07-03T07:47:51.932Z,1003
2018-07-03T07:48:32.412Z,1002.99
2018-07-03T07:49:12.922Z,1003.05
2018-07-03T07:49:53.421Z,1003.01
2018-07-03T07:50:33.908Z,1003.09
2018-07-03T07:51:14.565Z,1003.05
2018-07-03T07:51:56.043Z,1003.04
2018-07-03T07:52:36.508Z,1003.03
2018-07-03T07:53:17.030Z,1003.02
2018-07-03T07:53:57.526Z,1003.08
2018-07-03T07:54:38.077Z,1003.01
2018-07-03T07:55:19.435Z,1003.03
2018-07-03T07:55:59.937Z,1003.09
2018-07-03T07:56:40.992Z,1003.03
2018-07-03T07:57:21.529Z,1003.06
2018-07-03T07:58:01.991Z,1003.07
2018-07-03T07:58:42.517Z,1003
2018-07-03T07:59:22.970Z,1003.02
2018-07-03T08:00:03.485Z,1003
2018-07-03T08:00:44.721Z,1002.98
2018-07-03T08:01:25.224Z,1003.02
2018-07-03T08:02:06.227Z,1003.07
2018-07-03T08:02:46.728Z,1003.05
2018-07-03T08:03:27.209Z,1003.12
2018-07-03T08:04:07.702Z,1003.09
2018-07-03T08:04:48.803Z,1003.07
2018-07-03T08:05:29.305Z,1003.09
2018-07-03T08:06:09.864Z,1003.08
2018-07-03T08:06:50.392Z,1003.06
2018-07-03T08:07:31.597Z,1003.08
2018-07-03T08:08:12.059Z,1003.08
2018-07-03T08:08:55.253Z,1003.08
2018-07-03T08:09:35.714Z,1003.08
2018-07-03T08:10:16.776Z,1003.04
2018-07-03T08:10:58.102Z,1003.1
2018-07-03T08:11:38.588Z,1003.16
2018-07-03T08:12:19.099Z,1003.07
2018-07-03T08:12:59.647Z,1003.1
2018-07-03T08:13:40.142Z,1003.12
2018-07-03T08:14:21.594Z,1003.09
2018-07-03T08:15:02.108Z,1003.12
2018-07-03T08:15:43.316Z,1003.08
2018-07-03T08:16:23.815Z,1003.13
2018-07-03T08:17:05.254Z,1003.13
2018-07-03T08:17:45.734Z,1003.11